sensor_id;sensor_type;location;lat;lon;timestamp;temperature;humidity
46932;DHT22;32670;51.464;11.964;2024-01-30T00:02:16;22.40;50.10
46932;DHT22;32670;51.464;11.964;2024-01-30T00:04:42;22.40;50.30
46932;DHT22;32670;51.464;11.964;2024-01-30T00:07:08;22.40;50.20
46932;DHT22;32670;51.464;11.964;2024-01-30T00:09:33;22.40;50.10
46932;DHT22;32670;51.464;11.964;2024-01-30T00:11:59;22.40;50.30
46932;DHT22;32670;51.464;11.964;2024-01-30T00:14:24;22.40;50.30
46932;DHT22;32670;51.464;11.964;2024-01-30T00:16:51;22.50;50.50
46932;DHT22;32670;51.464;11.964;2024-01-30T00:19:17;22.50;50.60
46932;DHT22;32670;51.464;11.964;2024-01-30T00:21:42;22.40;50.40
46932;DHT22;32670;51.464;11.964;2024-01-30T00:24:08;22.40;50.50
46932;DHT22;32670;51.464;11.964;2024-01-30T00:26:33;22.40;50.50
46932;DHT22;32670;51.464;11.964;2024-01-30T00:28:59;22.40;50.50
46932;DHT22;32670;51.464;11.964;2024-01-30T00:31:24;22.50;50.50
46932;DHT22;32670;51.464;11.964;2024-01-30T00:33:50;22.40;50.50
46932;DHT22;32670;51.464;11.964;2024-01-30T00:36:15;22.40;50.70
46932;DHT22;32670;51.464;11.964;2024-01-30T00:38:41;22.50;50.80
46932;DHT22;32670;51.464;11.964;2024-01-30T00:41:08;22.50;50.70
46932;DHT22;32670;51.464;11.964;2024-01-30T00:43:33;22.50;51.30
46932;DHT22;32670;51.464;11.964;2024-01-30T00:45:59;22.50;51.20
46932;DHT22;32670;51.464;11.964;2024-01-30T00:48:25;22.50;51.80
46932;DHT22;32670;51.464;11.964;2024-01-30T00:50:50;22.50;51.20
46932;DHT22;32670;51.464;11.964;2024-01-30T00:53:16;22.50;51.20
46932;DHT22;32670;51.464;11.964;2024-01-30T00:55:41;22.50;51.10
46932;DHT22;32670;51.464;11.964;2024-01-30T00:58:06;22.50;51.00
46932;DHT22;32670;51.464;11.964;2024-01-30T01:00:32;22.50;51.10
46932;DHT22;32670;51.464;11.964;2024-01-30T01:02:58;22.50;51.60
46932;DHT22;32670;51.464;11.964;2024-01-30T01:05:24;22.50;51.00
46932;DHT22;32670;51.464;11.964;2024-01-30T01:07:50;22.50;51.10
46932;DHT22;32670;51.464;11.964;2024-01-30T01:10:17;22.50;51.10
46932;DHT22;32670;51.464;11.964;2024-01-30T01:12:43;22.50;51.00
46932;DHT22;32670;51.464;11.964;2024-01-30T01:15:09;22.50;50.90
46932;DHT22;32670;51.464;11.964;2024-01-30T01:17:36;22.50;50.90
46932;DHT22;32670;51.464;11.964;2024-01-30T01:20:02;22.50;50.90
46932;DHT22;32670;51.464;11.964;2024-01-30T01:22:27;22.50;51.10
46932;DHT22;32670;51.464;11.964;2024-01-30T01:24:53;22.50;51.10
46932;DHT22;32670;51.464;11.964;2024-01-30T01:27:18;22.50;51.00
46932;DHT22;32670;51.464;11.964;2024-01-30T01:29:44;22.50;51.00
46932;DHT22;32670;51.464;11.964;2024-01-30T01:32:10;22.50;51.10
46932;DHT22;32670;51.464;11.964;2024-01-30T01:34:36;22.50;51.20
46932;DHT22;32670;51.464;11.964;2024-01-30T01:37:01;22.50;51.20
46932;DHT22;32670;51.464;11.964;2024-01-30T01:39:27;22.50;51.30
46932;DHT22;32670;51.464;11.964;2024-01-30T01:41:52;22.50;51.40
46932;DHT22;32670;51.464;11.964;2024-01-30T01:44:18;22.50;51.50
46932;DHT22;32670;51.464;11.964;2024-01-30T01:46:44;22.50;51.50
46932;DHT22;32670;51.464;11.964;2024-01-30T01:49:09;22.50;51.50
46932;DHT22;32670;51.464;11.964;2024-01-30T01:51:36;22.50;51.60
46932;DHT22;32670;51.464;11.964;2024-01-30T01:54:04;22.50;51.60
46932;DHT22;32670;51.464;11.964;2024-01-30T01:56:30;22.50;51.60
46932;DHT22;32670;51.464;11.964;2024-01-30T01:59:00;22.50;51.70
46932;DHT22;32670;51.464;11.964;2024-01-30T02:01:29;22.50;51.60
46932;DHT22;32670;51.464;11.964;2024-01-30T02:03:56;22.50;51.80
46932;DHT22;32670;51.464;11.964;2024-01-30T02:06:21;22.50;51.80
46932;DHT22;32670;51.464;11.964;2024-01-30T02:08:48;22.50;51.80
46932;DHT22;32670;51.464;11.964;2024-01-30T02:11:13;22.50;51.70
46932;DHT22;32670;51.464;11.964;2024-01-30T02:13:39;22.50;51.90
46932;DHT22;32670;51.464;11.964;2024-01-30T02:16:06;22.60;51.90
46932;DHT22;32670;51.464;11.964;2024-01-30T02:18:31;22.60;52.40
46932;DHT22;32670;51.464;11.964;2024-01-30T02:20:58;22.50;52.10
46932;DHT22;32670;51.464;11.964;2024-01-30T02:23:27;22.60;51.50
46932;DHT22;32670;51.464;11.964;2024-01-30T02:25:52;22.60;51.30
46932;DHT22;32670;51.464;11.964;2024-01-30T02:28:19;22.60;51.70
46932;DHT22;32670;51.464;11.964;2024-01-30T02:30:45;22.60;51.70
46932;DHT22;32670;51.464;11.964;2024-01-30T02:33:12;22.60;51.70
46932;DHT22;32670;51.464;11.964;2024-01-30T02:35:37;22.60;51.80
46932;DHT22;32670;51.464;11.964;2024-01-30T02:38:03;22.60;51.90
46932;DHT22;32670;51.464;11.964;2024-01-30T02:40:29;22.60;52.00
46932;DHT22;32670;51.464;11.964;2024-01-30T02:42:57;22.60;52.00
46932;DHT22;32670;51.464;11.964;2024-01-30T02:45:23;22.60;52.00
46932;DHT22;32670;51.464;11.964;2024-01-30T02:47:48;22.60;52.00
46932;DHT22;32670;51.464;11.964;2024-01-30T02:50:14;22.60;52.00
46932;DHT22;32670;51.464;11.964;2024-01-30T02:52:40;22.60;52.00
46932;DHT22;32670;51.464;11.964;2024-01-30T02:55:06;22.60;52.20
46932;DHT22;32670;51.464;11.964;2024-01-30T02:57:31;22.60;52.00
46932;DHT22;32670;51.464;11.964;2024-01-30T02:59:57;22.60;52.10
46932;DHT22;32670;51.464;11.964;2024-01-30T03:02:22;22.60;52.20
46932;DHT22;32670;51.464;11.964;2024-01-30T03:04:48;22.60;52.10
46932;DHT22;32670;51.464;11.964;2024-01-30T03:07:13;22.60;52.30
46932;DHT22;32670;51.464;11.964;2024-01-30T03:09:41;22.60;52.20
46932;DHT22;32670;51.464;11.964;2024-01-30T03:12:07;22.60;52.20
46932;DHT22;32670;51.464;11.964;2024-01-30T03:14:33;22.60;52.20
46932;DHT22;32670;51.464;11.964;2024-01-30T03:16:58;22.60;52.30
46932;DHT22;32670;51.464;11.964;2024-01-30T03:19:24;22.60;52.30
46932;DHT22;32670;51.464;11.964;2024-01-30T03:21:50;22.60;52.30
46932;DHT22;32670;51.464;11.964;2024-01-30T03:24:15;22.60;52.30
46932;DHT22;32670;51.464;11.964;2024-01-30T03:26:41;22.60;52.30
46932;DHT22;32670;51.464;11.964;2024-01-30T03:29:06;22.60;52.30
46932;DHT22;32670;51.464;11.964;2024-01-30T03:31:32;22.60;52.20
46932;DHT22;32670;51.464;11.964;2024-01-30T03:33:58;22.60;51.60
46932;DHT22;32670;51.464;11.964;2024-01-30T03:36:23;22.60;52.00
46932;DHT22;32670;51.464;11.964;2024-01-30T03:38:49;22.60;52.40
46932;DHT22;32670;51.464;11.964;2024-01-30T03:41:14;22.60;52.80
46932;DHT22;32670;51.464;11.964;2024-01-30T03:43:40;22.70;52.90
46932;DHT22;32670;51.464;11.964;2024-01-30T03:46:05;22.60;52.60
46932;DHT22;32670;51.464;11.964;2024-01-30T03:48:31;22.60;52.70
46932;DHT22;32670;51.464;11.964;2024-01-30T03:50:56;22.70;52.70
46932;DHT22;32670;51.464;11.964;2024-01-30T03:53:22;22.70;52.70
46932;DHT22;32670;51.464;11.964;2024-01-30T03:55:47;22.70;52.70
46932;DHT22;32670;51.464;11.964;2024-01-30T03:58:13;22.70;52.70
46932;DHT22;32670;51.464;11.964;2024-01-30T04:00:38;22.70;52.80
46932;DHT22;32670;51.464;11.964;2024-01-30T04:03:04;22.70;52.90
46932;DHT22;32670;51.464;11.964;2024-01-30T04:05:30;22.70;52.80
46932;DHT22;32670;51.464;11.964;2024-01-30T04:07:56;22.70;52.70
46932;DHT22;32670;51.464;11.964;2024-01-30T04:10:21;22.70;52.90
46932;DHT22;32670;51.464;11.964;2024-01-30T04:12:47;22.70;52.70
46932;DHT22;32670;51.464;11.964;2024-01-30T04:15:12;22.70;52.80
46932;DHT22;32670;51.464;11.964;2024-01-30T04:17:39;22.70;52.90
46932;DHT22;32670;51.464;11.964;2024-01-30T04:20:05;22.70;52.70
46932;DHT22;32670;51.464;11.964;2024-01-30T04:22:31;22.70;52.80
46932;DHT22;32670;51.464;11.964;2024-01-30T04:24:56;22.70;52.80
46932;DHT22;32670;51.464;11.964;2024-01-30T04:27:22;22.70;52.60
46932;DHT22;32670;51.464;11.964;2024-01-30T04:29:47;22.70;52.70
46932;DHT22;32670;51.464;11.964;2024-01-30T04:32:13;22.80;52.80
46932;DHT22;32670;51.464;11.964;2024-01-30T04:34:38;22.70;52.80
46932;DHT22;32670;51.464;11.964;2024-01-30T04:37:04;22.80;52.90
46932;DHT22;32670;51.464;11.964;2024-01-30T04:39:29;22.80;52.80
46932;DHT22;32670;51.464;11.964;2024-01-30T04:41:55;22.80;53.00
46932;DHT22;32670;51.464;11.964;2024-01-30T04:44:20;22.80;53.00
46932;DHT22;32670;51.464;11.964;2024-01-30T04:46:46;22.70;52.90
46932;DHT22;32670;51.464;11.964;2024-01-30T04:49:11;22.70;53.00
46932;DHT22;32670;51.464;11.964;2024-01-30T04:51:37;22.70;52.90
46932;DHT22;32670;51.464;11.964;2024-01-30T04:54:02;22.80;53.20
46932;DHT22;32670;51.464;11.964;2024-01-30T04:56:28;22.70;53.10
46932;DHT22;32670;51.464;11.964;2024-01-30T04:58:53;22.70;53.20
46932;DHT22;32670;51.464;11.964;2024-01-30T05:01:19;22.80;53.30
46932;DHT22;32670;51.464;11.964;2024-01-30T05:03:44;22.80;53.40
46932;DHT22;32670;51.464;11.964;2024-01-30T05:06:10;22.70;53.40
46932;DHT22;32670;51.464;11.964;2024-01-30T05:08:35;22.80;53.50
46932;DHT22;32670;51.464;11.964;2024-01-30T05:11:05;22.80;53.50
46932;DHT22;32670;51.464;11.964;2024-01-30T05:13:31;22.70;53.10
46932;DHT22;32670;51.464;11.964;2024-01-30T05:15:57;22.70;53.30
46932;DHT22;32670;51.464;11.964;2024-01-30T05:18:22;22.80;53.40
46932;DHT22;32670;51.464;11.964;2024-01-30T05:20:49;22.80;53.10
46932;DHT22;32670;51.464;11.964;2024-01-30T05:23:15;22.70;52.70
46932;DHT22;32670;51.464;11.964;2024-01-30T05:25:40;22.70;52.70
46932;DHT22;32670;51.464;11.964;2024-01-30T05:28:06;22.80;52.90
46932;DHT22;32670;51.464;11.964;2024-01-30T05:30:31;22.80;52.90
46932;DHT22;32670;51.464;11.964;2024-01-30T05:32:57;22.80;53.00
46932;DHT22;32670;51.464;11.964;2024-01-30T05:35:22;22.80;53.00
46932;DHT22;32670;51.464;11.964;2024-01-30T05:37:48;22.80;53.00
46932;DHT22;32670;51.464;11.964;2024-01-30T05:40:14;22.80;53.20
46932;DHT22;32670;51.464;11.964;2024-01-30T05:42:40;22.80;53.40
46932;DHT22;32670;51.464;11.964;2024-01-30T05:45:06;22.80;53.30
46932;DHT22;32670;51.464;11.964;2024-01-30T05:47:31;22.80;53.40
46932;DHT22;32670;51.464;11.964;2024-01-30T05:49:57;22.80;53.40
46932;DHT22;32670;51.464;11.964;2024-01-30T05:52:22;22.80;53.40
46932;DHT22;32670;51.464;11.964;2024-01-30T05:54:48;22.80;53.30
46932;DHT22;32670;51.464;11.964;2024-01-30T05:57:13;22.80;53.20
46932;DHT22;32670;51.464;11.964;2024-01-30T05:59:39;22.80;53.40
46932;DHT22;32670;51.464;11.964;2024-01-30T06:02:04;22.80;53.30
46932;DHT22;32670;51.464;11.964;2024-01-30T06:04:30;22.80;53.30
46932;DHT22;32670;51.464;11.964;2024-01-30T06:06:55;22.80;53.30
46932;DHT22;32670;51.464;11.964;2024-01-30T06:09:21;22.80;53.30
46932;DHT22;32670;51.464;11.964;2024-01-30T06:11:46;22.80;53.40
46932;DHT22;32670;51.464;11.964;2024-01-30T06:14:12;22.80;53.30
46932;DHT22;32670;51.464;11.964;2024-01-30T06:16:37;22.80;53.40
46932;DHT22;32670;51.464;11.964;2024-01-30T06:19:02;22.80;53.40
46932;DHT22;32670;51.464;11.964;2024-01-30T06:21:28;22.80;53.40
46932;DHT22;32670;51.464;11.964;2024-01-30T06:23:53;22.80;53.60
46932;DHT22;32670;51.464;11.964;2024-01-30T06:26:19;22.80;53.80
46932;DHT22;32670;51.464;11.964;2024-01-30T06:28:44;22.80;53.60
46932;DHT22;32670;51.464;11.964;2024-01-30T06:31:10;22.80;52.60
46932;DHT22;32670;51.464;11.964;2024-01-30T06:33:35;22.80;53.00
46932;DHT22;32670;51.464;11.964;2024-01-30T06:36:01;22.80;53.00
46932;DHT22;32670;51.464;11.964;2024-01-30T06:38:26;22.80;53.10
46932;DHT22;32670;51.464;11.964;2024-01-30T06:40:52;22.80;53.30
46932;DHT22;32670;51.464;11.964;2024-01-30T06:43:17;22.80;53.50
46932;DHT22;32670;51.464;11.964;2024-01-30T06:45:42;22.80;53.70
46932;DHT22;32670;51.464;11.964;2024-01-30T06:48:08;22.80;53.50
46932;DHT22;32670;51.464;11.964;2024-01-30T06:50:34;22.80;53.50
46932;DHT22;32670;51.464;11.964;2024-01-30T06:52:59;22.90;53.40
46932;DHT22;32670;51.464;11.964;2024-01-30T06:55:25;22.90;52.90
46932;DHT22;32670;51.464;11.964;2024-01-30T06:57:50;22.80;51.20
46932;DHT22;32670;51.464;11.964;2024-01-30T07:00:16;22.80;50.00
46932;DHT22;32670;51.464;11.964;2024-01-30T07:02:42;22.70;49.00
46932;DHT22;32670;51.464;11.964;2024-01-30T07:05:07;22.60;48.50
46932;DHT22;32670;51.464;11.964;2024-01-30T07:07:33;22.60;47.90
46932;DHT22;32670;51.464;11.964;2024-01-30T07:09:58;22.50;46.90
46932;DHT22;32670;51.464;11.964;2024-01-30T07:12:24;22.50;45.50
46932;DHT22;32670;51.464;11.964;2024-01-30T07:14:51;22.40;44.60
46932;DHT22;32670;51.464;11.964;2024-01-30T07:17:16;22.40;44.00
46932;DHT22;32670;51.464;11.964;2024-01-30T07:19:42;22.30;43.70
46932;DHT22;32670;51.464;11.964;2024-01-30T07:22:08;22.30;43.30
46932;DHT22;32670;51.464;11.964;2024-01-30T07:24:34;22.20;43.00
46932;DHT22;32670;51.464;11.964;2024-01-30T07:27:00;22.20;43.00
46932;DHT22;32670;51.464;11.964;2024-01-30T07:29:26;22.20;42.70
46932;DHT22;32670;51.464;11.964;2024-01-30T07:31:51;22.10;42.40
46932;DHT22;32670;51.464;11.964;2024-01-30T07:34:17;22.10;42.30
46932;DHT22;32670;51.464;11.964;2024-01-30T07:36:42;22.10;42.20
46932;DHT22;32670;51.464;11.964;2024-01-30T07:39:08;22.10;42.10
46932;DHT22;32670;51.464;11.964;2024-01-30T07:41:33;22.10;42.00
46932;DHT22;32670;51.464;11.964;2024-01-30T07:43:59;22.00;41.80
46932;DHT22;32670;51.464;11.964;2024-01-30T07:46:24;22.10;41.80
46932;DHT22;32670;51.464;11.964;2024-01-30T07:48:50;22.00;41.70
46932;DHT22;32670;51.464;11.964;2024-01-30T07:51:15;22.00;41.50
46932;DHT22;32670;51.464;11.964;2024-01-30T07:53:41;22.00;41.40
46932;DHT22;32670;51.464;11.964;2024-01-30T07:56:07;22.00;41.30
46932;DHT22;32670;51.464;11.964;2024-01-30T07:58:32;22.00;41.20
46932;DHT22;32670;51.464;11.964;2024-01-30T08:00:58;21.90;41.10
46932;DHT22;32670;51.464;11.964;2024-01-30T08:03:24;21.90;41.00
46932;DHT22;32670;51.464;11.964;2024-01-30T08:05:49;21.90;40.50
46932;DHT22;32670;51.464;11.964;2024-01-30T08:08:15;21.90;41.60
46932;DHT22;32670;51.464;11.964;2024-01-30T08:10:40;21.90;41.70
46932;DHT22;32670;51.464;11.964;2024-01-30T08:13:06;21.90;41.60
46932;DHT22;32670;51.464;11.964;2024-01-30T08:15:31;22.00;41.40
46932;DHT22;32670;51.464;11.964;2024-01-30T08:17:57;21.90;41.00
46932;DHT22;32670;51.464;11.964;2024-01-30T08:20:24;21.90;40.90
46932;DHT22;32670;51.464;11.964;2024-01-30T08:22:50;21.90;40.80
46932;DHT22;32670;51.464;11.964;2024-01-30T08:25:16;21.80;40.70
46932;DHT22;32670;51.464;11.964;2024-01-30T08:27:41;21.80;40.50
46932;DHT22;32670;51.464;11.964;2024-01-30T08:30:07;21.80;40.50
46932;DHT22;32670;51.464;11.964;2024-01-30T08:32:33;21.80;40.30
46932;DHT22;32670;51.464;11.964;2024-01-30T08:34:59;21.80;40.30
46932;DHT22;32670;51.464;11.964;2024-01-30T08:37:24;21.80;40.40
46932;DHT22;32670;51.464;11.964;2024-01-30T08:39:50;21.70;40.20
46932;DHT22;32670;51.464;11.964;2024-01-30T08:42:15;21.80;40.30
46932;DHT22;32670;51.464;11.964;2024-01-30T08:44:43;21.70;41.10
46932;DHT22;32670;51.464;11.964;2024-01-30T08:47:09;21.80;41.00
46932;DHT22;32670;51.464;11.964;2024-01-30T08:49:34;21.80;41.20
46932;DHT22;32670;51.464;11.964;2024-01-30T08:52:00;21.80;41.80
46932;DHT22;32670;51.464;11.964;2024-01-30T08:54:25;21.80;41.70
46932;DHT22;32670;51.464;11.964;2024-01-30T08:56:51;21.90;41.80
46932;DHT22;32670;51.464;11.964;2024-01-30T08:59:18;21.90;42.00
46932;DHT22;32670;51.464;11.964;2024-01-30T09:01:44;21.90;42.10
46932;DHT22;32670;51.464;11.964;2024-01-30T09:04:12;21.90;42.20
46932;DHT22;32670;51.464;11.964;2024-01-30T09:06:37;21.90;42.90
46932;DHT22;32670;51.464;11.964;2024-01-30T09:09:04;21.90;42.40
46932;DHT22;32670;51.464;11.964;2024-01-30T09:11:31;21.90;42.50
46932;DHT22;32670;51.464;11.964;2024-01-30T09:13:56;21.90;42.90
46932;DHT22;32670;51.464;11.964;2024-01-30T09:16:22;21.90;42.80
46932;DHT22;32670;51.464;11.964;2024-01-30T09:18:47;22.00;42.80
46932;DHT22;32670;51.464;11.964;2024-01-30T09:21:12;22.00;43.10
46932;DHT22;32670;51.464;11.964;2024-01-30T09:23:38;22.00;43.00
46932;DHT22;32670;51.464;11.964;2024-01-30T09:26:03;22.00;43.20
46932;DHT22;32670;51.464;11.964;2024-01-30T09:28:29;22.00;43.10
46932;DHT22;32670;51.464;11.964;2024-01-30T09:30:54;22.00;43.20
46932;DHT22;32670;51.464;11.964;2024-01-30T09:33:20;22.00;43.20
46932;DHT22;32670;51.464;11.964;2024-01-30T09:35:45;22.00;43.30
46932;DHT22;32670;51.464;11.964;2024-01-30T09:38:11;22.00;43.30
46932;DHT22;32670;51.464;11.964;2024-01-30T09:40:36;22.00;43.40
46932;DHT22;32670;51.464;11.964;2024-01-30T09:43:02;22.00;43.40
46932;DHT22;32670;51.464;11.964;2024-01-30T09:45:27;22.00;43.50
46932;DHT22;32670;51.464;11.964;2024-01-30T09:47:53;22.00;43.50
46932;DHT22;32670;51.464;11.964;2024-01-30T09:50:19;22.00;43.60
46932;DHT22;32670;51.464;11.964;2024-01-30T09:52:46;22.00;43.60
46932;DHT22;32670;51.464;11.964;2024-01-30T09:55:12;22.00;43.60
46932;DHT22;32670;51.464;11.964;2024-01-30T09:57:38;22.00;43.60
46932;DHT22;32670;51.464;11.964;2024-01-30T10:00:05;22.00;43.60
46932;DHT22;32670;51.464;11.964;2024-01-30T10:02:34;22.00;43.70
46932;DHT22;32670;51.464;11.964;2024-01-30T10:05:00;22.00;43.70
46932;DHT22;32670;51.464;11.964;2024-01-30T10:07:25;22.00;43.70
46932;DHT22;32670;51.464;11.964;2024-01-30T10:09:52;22.00;43.70
46932;DHT22;32670;51.464;11.964;2024-01-30T10:12:18;22.00;43.80
46932;DHT22;32670;51.464;11.964;2024-01-30T10:14:44;22.00;43.80
46932;DHT22;32670;51.464;11.964;2024-01-30T10:17:10;22.00;43.80
46932;DHT22;32670;51.464;11.964;2024-01-30T10:19:37;22.00;43.80
46932;DHT22;32670;51.464;11.964;2024-01-30T10:22:04;22.00;43.80
46932;DHT22;32670;51.464;11.964;2024-01-30T10:24:29;22.00;43.90
46932;DHT22;32670;51.464;11.964;2024-01-30T10:26:55;22.00;43.90
46932;DHT22;32670;51.464;11.964;2024-01-30T10:29:21;22.00;43.90
46932;DHT22;32670;51.464;11.964;2024-01-30T10:32:00;22.00;43.80
46932;DHT22;32670;51.464;11.964;2024-01-30T10:34:26;22.00;43.90
46932;DHT22;32670;51.464;11.964;2024-01-30T10:37:08;22.00;43.90
46932;DHT22;32670;51.464;11.964;2024-01-30T10:39:38;22.00;43.90
46932;DHT22;32670;51.464;11.964;2024-01-30T10:42:05;22.00;43.90
46932;DHT22;32670;51.464;11.964;2024-01-30T10:44:36;22.00;43.80
46932;DHT22;32670;51.464;11.964;2024-01-30T10:47:06;22.00;43.90
46932;DHT22;32670;51.464;11.964;2024-01-30T10:49:36;22.00;44.00
46932;DHT22;32670;51.464;11.964;2024-01-30T10:52:03;22.00;44.00
46932;DHT22;32670;51.464;11.964;2024-01-30T10:54:31;22.00;44.00
46932;DHT22;32670;51.464;11.964;2024-01-30T10:57:00;22.00;44.00
46932;DHT22;32670;51.464;11.964;2024-01-30T10:59:27;22.00;44.50
46932;DHT22;32670;51.464;11.964;2024-01-30T11:01:53;22.00;44.00
46932;DHT22;32670;51.464;11.964;2024-01-30T11:04:18;22.00;44.00
46932;DHT22;32670;51.464;11.964;2024-01-30T11:06:44;22.00;44.10
46932;DHT22;32670;51.464;11.964;2024-01-30T11:09:12;22.00;44.00
46932;DHT22;32670;51.464;11.964;2024-01-30T11:11:51;22.00;44.00
46932;DHT22;32670;51.464;11.964;2024-01-30T11:14:23;22.00;44.00
46932;DHT22;32670;51.464;11.964;2024-01-30T11:16:49;22.00;44.00
46932;DHT22;32670;51.464;11.964;2024-01-30T11:19:14;22.00;44.00
46932;DHT22;32670;51.464;11.964;2024-01-30T11:21:41;22.00;44.10
46932;DHT22;32670;51.464;11.964;2024-01-30T11:24:08;22.00;44.00
46932;DHT22;32670;51.464;11.964;2024-01-30T11:26:33;22.00;44.00
46932;DHT22;32670;51.464;11.964;2024-01-30T11:29:03;22.00;44.10
46932;DHT22;32670;51.464;11.964;2024-01-30T11:31:29;22.00;44.10
46932;DHT22;32670;51.464;11.964;2024-01-30T11:33:56;22.00;44.10
46932;DHT22;32670;51.464;11.964;2024-01-30T11:36:25;22.00;44.00
46932;DHT22;32670;51.464;11.964;2024-01-30T11:38:51;22.00;44.10
46932;DHT22;32670;51.464;11.964;2024-01-30T11:41:17;22.00;44.00
46932;DHT22;32670;51.464;11.964;2024-01-30T11:43:48;22.00;44.10
46932;DHT22;32670;51.464;11.964;2024-01-30T11:46:16;22.00;44.10
46932;DHT22;32670;51.464;11.964;2024-01-30T11:48:41;22.00;44.10
46932;DHT22;32670;51.464;11.964;2024-01-30T11:51:07;22.00;44.10
46932;DHT22;32670;51.464;11.964;2024-01-30T11:53:32;22.00;44.10
46932;DHT22;32670;51.464;11.964;2024-01-30T11:55:58;22.00;44.10
46932;DHT22;32670;51.464;11.964;2024-01-30T11:58:25;22.00;44.10
46932;DHT22;32670;51.464;11.964;2024-01-30T12:00:57;22.00;44.10
46932;DHT22;32670;51.464;11.964;2024-01-30T12:03:23;22.00;44.30
46932;DHT22;32670;51.464;11.964;2024-01-30T12:05:58;22.00;44.50
46932;DHT22;32670;51.464;11.964;2024-01-30T12:08:26;22.00;44.70
46932;DHT22;32670;51.464;11.964;2024-01-30T12:10:59;22.00;44.40
46932;DHT22;32670;51.464;11.964;2024-01-30T12:13:26;22.00;44.30
46932;DHT22;32670;51.464;11.964;2024-01-30T12:15:53;22.00;44.20
46932;DHT22;32670;51.464;11.964;2024-01-30T12:18:19;22.00;44.30
46932;DHT22;32670;51.464;11.964;2024-01-30T12:20:45;22.10;44.30
46932;DHT22;32670;51.464;11.964;2024-01-30T12:23:12;22.10;44.30
46932;DHT22;32670;51.464;11.964;2024-01-30T12:25:38;22.00;44.20
46932;DHT22;32670;51.464;11.964;2024-01-30T12:28:03;22.00;44.30
46932;DHT22;32670;51.464;11.964;2024-01-30T12:30:29;22.00;44.30
46932;DHT22;32670;51.464;11.964;2024-01-30T12:32:55;22.00;44.20
46932;DHT22;32670;51.464;11.964;2024-01-30T12:35:20;22.00;44.30
46932;DHT22;32670;51.464;11.964;2024-01-30T12:37:47;22.10;44.90
46932;DHT22;32670;51.464;11.964;2024-01-30T12:40:16;22.00;44.20
46932;DHT22;32670;51.464;11.964;2024-01-30T12:42:43;22.00;44.20
46932;DHT22;32670;51.464;11.964;2024-01-30T12:45:11;22.00;44.10
46932;DHT22;32670;51.464;11.964;2024-01-30T12:47:36;22.00;44.10
46932;DHT22;32670;51.464;11.964;2024-01-30T12:50:02;22.00;44.00
46932;DHT22;32670;51.464;11.964;2024-01-30T12:52:28;22.00;43.90
46932;DHT22;32670;51.464;11.964;2024-01-30T12:54:54;22.00;43.90
46932;DHT22;32670;51.464;11.964;2024-01-30T12:57:20;22.00;43.80
46932;DHT22;32670;51.464;11.964;2024-01-30T12:59:46;22.00;43.80
46932;DHT22;32670;51.464;11.964;2024-01-30T13:02:13;22.00;43.90
46932;DHT22;32670;51.464;11.964;2024-01-30T13:04:39;22.00;43.80
46932;DHT22;32670;51.464;11.964;2024-01-30T13:07:04;22.00;43.70
46932;DHT22;32670;51.464;11.964;2024-01-30T13:09:30;22.00;43.80
46932;DHT22;32670;51.464;11.964;2024-01-30T13:11:57;22.00;43.80
46932;DHT22;32670;51.464;11.964;2024-01-30T13:14:23;22.10;43.80
46932;DHT22;32670;51.464;11.964;2024-01-30T13:16:48;22.00;43.90
46932;DHT22;32670;51.464;11.964;2024-01-30T13:19:14;22.00;43.50
46932;DHT22;32670;51.464;11.964;2024-01-30T13:21:39;22.00;43.80
46932;DHT22;32670;51.464;11.964;2024-01-30T13:24:05;22.00;43.80
46932;DHT22;32670;51.464;11.964;2024-01-30T13:26:34;22.00;43.80
46932;DHT22;32670;51.464;11.964;2024-01-30T13:28:59;22.00;43.80
46932;DHT22;32670;51.464;11.964;2024-01-30T13:31:24;22.00;43.80
46932;DHT22;32670;51.464;11.964;2024-01-30T13:33:50;22.00;43.80
46932;DHT22;32670;51.464;11.964;2024-01-30T13:36:16;22.00;43.80
46932;DHT22;32670;51.464;11.964;2024-01-30T13:38:41;22.00;43.80
46932;DHT22;32670;51.464;11.964;2024-01-30T13:41:07;22.00;43.90
46932;DHT22;32670;51.464;11.964;2024-01-30T13:43:32;22.00;43.90
46932;DHT22;32670;51.464;11.964;2024-01-30T13:45:58;22.00;43.90
46932;DHT22;32670;51.464;11.964;2024-01-30T13:48:24;22.00;43.90
46932;DHT22;32670;51.464;11.964;2024-01-30T13:50:49;22.00;43.90
46932;DHT22;32670;51.464;11.964;2024-01-30T13:53:15;22.00;43.90
46932;DHT22;32670;51.464;11.964;2024-01-30T13:55:40;22.00;44.00
46932;DHT22;32670;51.464;11.964;2024-01-30T13:58:06;22.00;43.90
46932;DHT22;32670;51.464;11.964;2024-01-30T14:00:33;22.00;44.00
46932;DHT22;32670;51.464;11.964;2024-01-30T14:02:59;22.00;44.00
46932;DHT22;32670;51.464;11.964;2024-01-30T14:05:25;22.00;44.00
46932;DHT22;32670;51.464;11.964;2024-01-30T14:07:51;22.00;44.00
46932;DHT22;32670;51.464;11.964;2024-01-30T14:10:17;22.00;44.00
46932;DHT22;32670;51.464;11.964;2024-01-30T14:12:43;22.00;43.90
46932;DHT22;32670;51.464;11.964;2024-01-30T14:15:10;22.00;44.10
46932;DHT22;32670;51.464;11.964;2024-01-30T14:17:36;22.00;44.00
46932;DHT22;32670;51.464;11.964;2024-01-30T14:20:03;22.00;44.00
46932;DHT22;32670;51.464;11.964;2024-01-30T14:22:29;22.00;44.00
46932;DHT22;32670;51.464;11.964;2024-01-30T14:24:55;22.00;44.00
46932;DHT22;32670;51.464;11.964;2024-01-30T14:27:21;22.00;44.00
46932;DHT22;32670;51.464;11.964;2024-01-30T14:29:47;22.00;44.00
46932;DHT22;32670;51.464;11.964;2024-01-30T14:32:12;22.00;44.10
46932;DHT22;32670;51.464;11.964;2024-01-30T14:34:38;22.00;44.00
46932;DHT22;32670;51.464;11.964;2024-01-30T14:37:04;22.00;44.10
46932;DHT22;32670;51.464;11.964;2024-01-30T14:39:29;22.00;44.10
46932;DHT22;32670;51.464;11.964;2024-01-30T14:41:55;22.00;44.10
46932;DHT22;32670;51.464;11.964;2024-01-30T14:44:21;22.00;44.10
46932;DHT22;32670;51.464;11.964;2024-01-30T14:46:46;22.00;44.10
46932;DHT22;32670;51.464;11.964;2024-01-30T14:49:12;22.00;44.10
46932;DHT22;32670;51.464;11.964;2024-01-30T14:51:37;22.00;44.00
46932;DHT22;32670;51.464;11.964;2024-01-30T14:54:03;22.00;44.10
46932;DHT22;32670;51.464;11.964;2024-01-30T14:56:28;22.00;44.00
46932;DHT22;32670;51.464;11.964;2024-01-30T14:58:54;22.00;44.10
46932;DHT22;32670;51.464;11.964;2024-01-30T15:01:19;22.00;44.10
46932;DHT22;32670;51.464;11.964;2024-01-30T15:03:45;22.00;44.10
46932;DHT22;32670;51.464;11.964;2024-01-30T15:06:14;22.00;44.10
46932;DHT22;32670;51.464;11.964;2024-01-30T15:08:39;22.00;44.10